sensor_id;sensor_type;location;lat;lon;timestamp;pressure;altitude;pressure_sealevel;temperature;humidity
32131;BME280;18639;50.716;7.086;2023-04-28T00:00:42;100123.50;;;13.27;68.32
32131;BME280;18639;50.716;7.086;2023-04-28T00:03:07;100091.72;;;13.14;68.89
32131;BME280;18639;50.716;7.086;2023-04-28T00:05:33;100125.72;;;13.31;68.37
32131;BME280;18639;50.716;7.086;2023-04-28T00:07:58;100102.09;;;13.14;69.04
32131;BME280;18639;50.716;7.086;2023-04-28T00:10:24;100111.84;;;13.21;67.00
32131;BME280;18639;50.716;7.086;2023-04-28T00:12:49;100108.31;;;13.22;67.43
32131;BME280;18639;50.716;7.086;2023-04-28T00:15:14;100089.91;;;13.14;67.60
32131;BME280;18639;50.716;7.086;2023-04-28T00:17:40;100107.09;;;13.26;68.58
32131;BME280;18639;50.716;7.086;2023-04-28T00:20:05;100091.72;;;13.14;68.19
32131;BME280;18639;50.716;7.086;2023-04-28T00:22:31;100094.50;;;13.22;70.61
32131;BME280;18639;50.716;7.086;2023-04-28T00:24:56;100095.91;;;13.26;73.17
32131;BME280;18639;50.716;7.086;2023-04-28T00:27:21;100099.47;;;13.25;74.02
32131;BME280;18639;50.716;7.086;2023-04-28T00:29:46;100085.69;;;13.13;80.27
32131;BME280;18639;50.716;7.086;2023-04-28T00:32:12;100095.69;;;13.06;82.19
32131;BME280;18639;50.716;7.086;2023-04-28T00:34:38;100044.09;;;12.81;78.84
32131;BME280;18639;50.716;7.086;2023-04-28T00:37:03;100079.19;;;12.96;80.32
32131;BME280;18639;50.716;7.086;2023-04-28T00:39:29;100064.59;;;12.84;82.16
32131;BME280;18639;50.716;7.086;2023-04-28T00:41:54;100050.00;;;12.72;80.57
32131;BME280;18639;50.716;7.086;2023-04-28T00:44:19;100065.31;;;12.86;79.23
32131;BME280;18639;50.716;7.086;2023-04-28T00:46:45;100074.59;;;12.89;83.04
32131;BME280;18639;50.716;7.086;2023-04-28T00:49:11;100079.94;;;12.87;82.63
32131;BME280;18639;50.716;7.086;2023-04-28T00:51:37;100074.25;;;12.82;85.06
32131;BME280;18639;50.716;7.086;2023-04-28T00:54:03;100058.75;;;12.71;85.52
32131;BME280;18639;50.716;7.086;2023-04-28T00:56:30;100051.28;;;12.66;87.82
32131;BME280;18639;50.716;7.086;2023-04-28T00:58:56;100042.00;;;12.53;90.34
32131;BME280;18639;50.716;7.086;2023-04-28T01:01:22;100057.78;;;12.61;91.18
32131;BME280;18639;50.716;7.086;2023-04-28T01:03:47;100030.72;;;12.43;91.00
32131;BME280;18639;50.716;7.086;2023-04-28T01:06:13;100050.25;;;12.47;92.68
32131;BME280;18639;50.716;7.086;2023-04-28T01:08:39;100036.56;;;12.45;95.37
32131;BME280;18639;50.716;7.086;2023-04-28T01:11:04;100021.16;;;12.32;94.06
32131;BME280;18639;50.716;7.086;2023-04-28T01:13:31;100031.28;;;12.35;96.41
32131;BME280;18639;50.716;7.086;2023-04-28T01:15:56;100021.63;;;12.26;93.92
32131;BME280;18639;50.716;7.086;2023-04-28T01:18:22;100013.38;;;12.21;92.59
32131;BME280;18639;50.716;7.086;2023-04-28T01:20:48;100024.59;;;12.21;94.30
32131;BME280;18639;50.716;7.086;2023-04-28T01:23:14;100043.41;;;12.35;92.20
32131;BME280;18639;50.716;7.086;2023-04-28T01:25:40;100042.59;;;12.34;91.28
32131;BME280;18639;50.716;7.086;2023-04-28T01:28:06;100031.44;;;12.34;91.71
32131;BME280;18639;50.716;7.086;2023-04-28T01:30:32;100042.13;;;12.40;91.61
32131;BME280;18639;50.716;7.086;2023-04-28T01:32:57;100025.41;;;12.22;94.45
32131;BME280;18639;50.716;7.086;2023-04-28T01:35:23;100018.78;;;12.18;97.27
32131;BME280;18639;50.716;7.086;2023-04-28T01:37:48;100015.72;;;12.13;100.00
32131;BME280;18639;50.716;7.086;2023-04-28T01:40:13;100041.06;;;12.20;100.00
32131;BME280;18639;50.716;7.086;2023-04-28T01:42:38;100030.47;;;12.12;100.00
32131;BME280;18639;50.716;7.086;2023-04-28T01:45:04;100034.47;;;12.16;100.00
32131;BME280;18639;50.716;7.086;2023-04-28T01:47:30;100011.84;;;12.07;100.00
32131;BME280;18639;50.716;7.086;2023-04-28T01:49:55;100009.25;;;11.96;100.00
32131;BME280;18639;50.716;7.086;2023-04-28T01:52:21;99991.22;;;11.84;100.00
32131;BME280;18639;50.716;7.086;2023-04-28T01:54:48;100022.91;;;11.98;100.00
32131;BME280;18639;50.716;7.086;2023-04-28T01:57:13;100018.44;;;11.89;100.00
32131;BME280;18639;50.716;7.086;2023-04-28T01:59:38;100030.31;;;11.92;100.00
32131;BME280;18639;50.716;7.086;2023-04-28T02:02:04;100017.22;;;11.82;100.00
32131;BME280;18639;50.716;7.086;2023-04-28T02:04:29;100020.28;;;11.87;100.00
32131;BME280;18639;50.716;7.086;2023-04-28T02:06:54;100019.34;;;11.77;100.00
32131;BME280;18639;50.716;7.086;2023-04-28T02:09:20;100018.66;;;11.75;100.00
32131;BME280;18639;50.716;7.086;2023-04-28T02:11:45;100004.34;;;11.58;100.00
32131;BME280;18639;50.716;7.086;2023-04-28T02:14:10;99996.31;;;11.61;100.00
32131;BME280;18639;50.716;7.086;2023-04-28T02:16:35;100008.81;;;11.67;100.00
32131;BME280;18639;50.716;7.086;2023-04-28T02:19:01;100023.09;;;11.73;100.00
32131;BME280;18639;50.716;7.086;2023-04-28T02:21:26;100006.94;;;11.69;100.00
32131;BME280;18639;50.716;7.086;2023-04-28T02:23:52;100007.56;;;11.73;100.00
32131;BME280;18639;50.716;7.086;2023-04-28T02:26:17;100009.28;;;11.72;100.00
32131;BME280;18639;50.716;7.086;2023-04-28T02:28:42;100011.06;;;11.72;100.00
32131;BME280;18639;50.716;7.086;2023-04-28T02:31:09;100026.16;;;11.78;100.00
32131;BME280;18639;50.716;7.086;2023-04-28T02:33:36;100004.03;;;11.74;100.00
32131;BME280;18639;50.716;7.086;2023-04-28T02:36:02;99989.28;;;11.63;100.00
32131;BME280;18639;50.716;7.086;2023-04-28T02:38:28;99984.22;;;11.62;100.00
32131;BME280;18639;50.716;7.086;2023-04-28T02:41:00;99998.72;;;11.64;100.00
32131;BME280;18639;50.716;7.086;2023-04-28T02:43:29;99978.81;;;11.54;100.00
32131;BME280;18639;50.716;7.086;2023-04-28T02:45:55;99997.41;;;11.70;100.00
32131;BME280;18639;50.716;7.086;2023-04-28T02:48:21;99990.94;;;11.64;100.00
32131;BME280;18639;50.716;7.086;2023-04-28T02:50:46;99984.22;;;11.62;100.00
32131;BME280;18639;50.716;7.086;2023-04-28T02:53:12;99997.75;;;11.65;100.00
32131;BME280;18639;50.716;7.086;2023-04-28T02:55:37;100005.28;;;11.68;100.00
32131;BME280;18639;50.716;7.086;2023-04-28T02:58:03;100006.34;;;11.66;100.00
32131;BME280;18639;50.716;7.086;2023-04-28T03:00:28;99997.16;;;11.62;100.00
32131;BME280;18639;50.716;7.086;2023-04-28T03:02:53;99998.91;;;11.61;100.00
32131;BME280;18639;50.716;7.086;2023-04-28T03:05:19;99997.13;;;11.51;100.00
32131;BME280;18639;50.716;7.086;2023-04-28T03:07:44;99981.56;;;11.39;100.00
32131;BME280;18639;50.716;7.086;2023-04-28T03:10:10;99990.97;;;11.40;100.00
32131;BME280;18639;50.716;7.086;2023-04-28T03:12:35;99976.72;;;11.35;100.00
32131;BME280;18639;50.716;7.086;2023-04-28T03:15:00;99967.91;;;11.26;100.00
32131;BME280;18639;50.716;7.086;2023-04-28T03:17:26;99964.00;;;11.21;100.00
32131;BME280;18639;50.716;7.086;2023-04-28T03:19:51;99970.31;;;11.17;100.00
32131;BME280;18639;50.716;7.086;2023-04-28T03:22:16;99971.63;;;11.22;100.00
32131;BME280;18639;50.716;7.086;2023-04-28T03:24:42;99966.44;;;11.22;100.00
32131;BME280;18639;50.716;7.086;2023-04-28T03:27:07;99974.84;;;11.26;100.00
32131;BME280;18639;50.716;7.086;2023-04-28T03:29:32;99971.53;;;11.24;100.00
32131;BME280;18639;50.716;7.086;2023-04-28T03:31:57;99971.75;;;11.21;100.00
32131;BME280;18639;50.716;7.086;2023-04-28T03:34:23;99941.94;;;11.04;100.00
32131;BME280;18639;50.716;7.086;2023-04-28T03:36:48;99961.84;;;11.15;100.00
32131;BME280;18639;50.716;7.086;2023-04-28T03:39:13;99970.78;;;11.22;100.00
32131;BME280;18639;50.716;7.086;2023-04-28T03:41:38;99970.78;;;11.22;100.00
32131;BME280;18639;50.716;7.086;2023-04-28T03:44:04;99926.53;;;11.03;100.00
32131;BME280;18639;50.716;7.086;2023-04-28T03:46:29;99953.75;;;11.19;100.00
32131;BME280;18639;50.716;7.086;2023-04-28T03:48:54;99953.66;;;11.21;100.00
32131;BME280;18639;50.716;7.086;2023-04-28T03:51:20;99924.78;;;11.03;100.00
32131;BME280;18639;50.716;7.086;2023-04-28T03:53:45;99944.34;;;11.18;100.00
32131;BME280;18639;50.716;7.086;2023-04-28T03:56:10;99939.28;;;11.17;100.00
32131;BME280;18639;50.716;7.086;2023-04-28T03:58:36;99946.72;;;11.21;100.00
32131;BME280;18639;50.716;7.086;2023-04-28T04:01:01;99921.97;;;11.06;100.00
32131;BME280;18639;50.716;7.086;2023-04-28T04:03:26;99927.16;;;11.17;100.00
32131;BME280;18639;50.716;7.086;2023-04-28T04:05:52;99932.34;;;11.17;100.00
32131;BME280;18639;50.716;7.086;2023-04-28T04:08:18;99930.47;;;11.19;100.00
32131;BME280;18639;50.716;7.086;2023-04-28T04:10:44;99917.56;;;11.19;100.00
32131;BME280;18639;50.716;7.086;2023-04-28T04:13:10;99924.38;;;11.20;100.00
32131;BME280;18639;50.716;7.086;2023-04-28T04:15:35;99910.81;;;11.17;100.00
32131;BME280;18639;50.716;7.086;2023-04-28T04:18:01;99902.75;;;11.21;100.00
32131;BME280;18639;50.716;7.086;2023-04-28T04:20:26;99894.75;;;11.24;100.00
32131;BME280;18639;50.716;7.086;2023-04-28T04:22:51;99889.81;;;11.21;100.00
32131;BME280;18639;50.716;7.086;2023-04-28T04:25:16;99895.69;;;11.23;100.00
32131;BME280;18639;50.716;7.086;2023-04-28T04:27:42;99879.00;;;11.16;100.00
32131;BME280;18639;50.716;7.086;2023-04-28T04:30:08;99893.81;;;11.25;100.00
32131;BME280;18639;50.716;7.086;2023-04-28T04:32:33;99900.66;;;11.26;100.00
32131;BME280;18639;50.716;7.086;2023-04-28T04:34:58;99883.47;;;11.25;100.00
32131;BME280;18639;50.716;7.086;2023-04-28T04:37:23;99892.53;;;11.31;100.00
32131;BME280;18639;50.716;7.086;2023-04-28T04:39:49;99878.06;;;11.28;100.00
32131;BME280;18639;50.716;7.086;2023-04-28T04:42:14;99883.00;;;11.20;100.00
32131;BME280;18639;50.716;7.086;2023-04-28T04:44:39;99887.81;;;11.25;100.00
32131;BME280;18639;50.716;7.086;2023-04-28T04:47:04;99893.00;;;11.25;100.00
32131;BME280;18639;50.716;7.086;2023-04-28T04:49:30;99885.81;;;11.28;100.00
32131;BME280;18639;50.716;7.086;2023-04-28T04:51:55;99863.47;;;11.16;100.00
32131;BME280;18639;50.716;7.086;2023-04-28T04:54:20;99891.47;;;11.33;100.00
32131;BME280;18639;50.716;7.086;2023-04-28T04:56:46;99889.59;;;11.35;100.00
32131;BME280;18639;50.716;7.086;2023-04-28T04:59:11;99892.53;;;11.31;100.00
32131;BME280;18639;50.716;7.086;2023-04-28T05:01:36;99910.41;;;11.34;100.00
32131;BME280;18639;50.716;7.086;2023-04-28T05:04:02;99920.88;;;11.32;100.00
32131;BME280;18639;50.716;7.086;2023-04-28T05:06:27;99930.06;;;11.36;100.00
32131;BME280;18639;50.716;7.086;2023-04-28T05:08:53;99932.66;;;11.36;100.00
32131;BME280;18639;50.716;7.086;2023-04-28T05:11:18;99929.25;;;11.36;100.00
32131;BME280;18639;50.716;7.086;2023-04-28T05:13:43;99931.59;;;11.39;100.00
32131;BME280;18639;50.716;7.086;2023-04-28T05:16:08;99946.28;;;11.38;100.00
32131;BME280;18639;50.716;7.086;2023-04-28T05:18:34;99939.25;;;11.40;100.00
32131;BME280;18639;50.716;7.086;2023-04-28T05:20:59;99936.06;;;11.37;100.00
32131;BME280;18639;50.716;7.086;2023-04-28T05:23:25;99928.31;;;11.37;100.00
32131;BME280;18639;50.716;7.086;2023-04-28T05:25:50;99927.22;;;11.39;100.00
32131;BME280;18639;50.716;7.086;2023-04-28T05:28:16;99932.88;;;11.45;100.00
32131;BME280;18639;50.716;7.086;2023-04-28T05:30:41;99932.19;;;11.43;100.00
32131;BME280;18639;50.716;7.086;2023-04-28T05:33:08;99925.47;;;11.40;100.00
32131;BME280;18639;50.716;7.086;2023-04-28T05:35:34;99922.31;;;11.36;100.00
32131;BME280;18639;50.716;7.086;2023-04-28T05:38:00;99917.13;;;11.36;100.00
32131;BME280;18639;50.716;7.086;2023-04-28T05:40:25;99919.25;;;11.31;100.00
32131;BME280;18639;50.716;7.086;2023-04-28T05:42:51;99922.50;;;11.33;100.00
32131;BME280;18639;50.716;7.086;2023-04-28T05:45:17;99925.00;;;11.35;100.00
32131;BME280;18639;50.716;7.086;2023-04-28T05:47:42;99917.59;;;11.30;100.00
32131;BME280;18639;50.716;7.086;2023-04-28T05:50:08;99911.22;;;11.23;100.00
32131;BME280;18639;50.716;7.086;2023-04-28T05:52:33;99912.28;;;11.21;100.00
32131;BME280;18639;50.716;7.086;2023-04-28T05:54:59;99906.75;;;11.25;100.00
32131;BME280;18639;50.716;7.086;2023-04-28T05:57:24;99891.34;;;11.24;100.00
32131;BME280;18639;50.716;7.086;2023-04-28T05:59:49;99897.59;;;11.21;100.00
32131;BME280;18639;50.716;7.086;2023-04-28T06:02:15;99899.59;;;11.29;100.00
32131;BME280;18639;50.716;7.086;2023-04-28T06:04:40;99886.31;;;11.33;100.00
32131;BME280;18639;50.716;7.086;2023-04-28T06:07:07;99883.69;;;11.22;100.00
32131;BME280;18639;50.716;7.086;2023-04-28T06:09:32;99895.03;;;11.32;100.00
32131;BME280;18639;50.716;7.086;2023-04-28T06:11:58;99883.03;;;11.31;100.00
32131;BME280;18639;50.716;7.086;2023-04-28T06:14:23;99850.34;;;11.30;100.00
32131;BME280;18639;50.716;7.086;2023-04-28T06:16:49;99868.81;;;11.37;100.00
32131;BME280;18639;50.716;7.086;2023-04-28T06:19:15;99877.72;;;11.44;100.00
32131;BME280;18639;50.716;7.086;2023-04-28T06:21:43;99886.78;;;11.50;100.00
32131;BME280;18639;50.716;7.086;2023-04-28T06:24:08;99877.28;;;11.50;100.00
32131;BME280;18639;50.716;7.086;2023-04-28T06:26:33;99886.69;;;11.62;100.00
32131;BME280;18639;50.716;7.086;2023-04-28T06:28:59;99882.25;;;11.64;100.00
32131;BME280;18639;50.716;7.086;2023-04-28T06:31:24;99885.66;;;11.76;100.00
32131;BME280;18639;50.716;7.086;2023-04-28T06:33:50;99862.22;;;11.66;100.00
32131;BME280;18639;50.716;7.086;2023-04-28T06:36:15;99845.66;;;11.69;100.00
32131;BME280;18639;50.716;7.086;2023-04-28T06:38:42;99877.44;;;11.93;100.00
32131;BME280;18639;50.716;7.086;2023-04-28T06:41:09;99872.50;;;11.79;100.00
32131;BME280;18639;50.716;7.086;2023-04-28T06:43:34;99878.81;;;11.97;100.00
32131;BME280;18639;50.716;7.086;2023-04-28T06:46:00;99877.16;;;12.07;100.00
32131;BME280;18639;50.716;7.086;2023-04-28T06:48:26;99874.34;;;12.21;100.00
32131;BME280;18639;50.716;7.086;2023-04-28T06:50:52;99868.56;;;12.18;100.00
32131;BME280;18639;50.716;7.086;2023-04-28T06:53:17;99880.53;;;12.41;100.00
32131;BME280;18639;50.716;7.086;2023-04-28T06:55:42;99894.97;;;12.55;100.00
32131;BME280;18639;50.716;7.086;2023-04-28T06:58:08;99895.19;;;12.63;100.00
32131;BME280;18639;50.716;7.086;2023-04-28T07:00:33;99880.81;;;12.59;100.00
32131;BME280;18639;50.716;7.086;2023-04-28T07:02:59;99878.69;;;12.64;100.00
32131;BME280;18639;50.716;7.086;2023-04-28T07:05:24;99891.00;;;12.72;100.00
32131;BME280;18639;50.716;7.086;2023-04-28T07:07:50;99885.97;;;12.70;100.00
32131;BME280;18639;50.716;7.086;2023-04-28T07:10:16;99889.25;;;12.72;100.00
32131;BME280;18639;50.716;7.086;2023-04-28T07:12:41;99896.97;;;12.83;100.00
32131;BME280;18639;50.716;7.086;2023-04-28T07:15:07;99883.41;;;12.91;100.00
32131;BME280;18639;50.716;7.086;2023-04-28T07:17:32;99892.63;;;13.04;100.00
32131;BME280;18639;50.716;7.086;2023-04-28T07:19:58;99898.13;;;13.22;100.00
32131;BME280;18639;50.716;7.086;2023-04-28T07:22:23;99891.72;;;13.26;100.00
32131;BME280;18639;50.716;7.086;2023-04-28T07:24:48;99881.59;;;13.44;100.00
32131;BME280;18639;50.716;7.086;2023-04-28T07:27:14;99894.03;;;13.71;100.00
32131;BME280;18639;50.716;7.086;2023-04-28T07:29:39;99873.31;;;13.90;100.00
32131;BME280;18639;50.716;7.086;2023-04-28T07:32:04;99890.91;;;14.26;100.00
32131;BME280;18639;50.716;7.086;2023-04-28T07:34:32;99893.47;;;14.47;100.00
32131;BME280;18639;50.716;7.086;2023-04-28T07:36:57;99908.38;;;14.64;100.00
32131;BME280;18639;50.716;7.086;2023-04-28T07:39:23;99892.66;;;14.56;100.00
32131;BME280;18639;50.716;7.086;2023-04-28T07:41:49;99889.75;;;14.50;100.00
32131;BME280;18639;50.716;7.086;2023-04-28T07:44:14;99891.53;;;14.59;100.00
32131;BME280;18639;50.716;7.086;2023-04-28T07:46:39;99879.41;;;14.69;100.00
32131;BME280;18639;50.716;7.086;2023-04-28T07:49:05;99886.78;;;14.73;100.00
32131;BME280;18639;50.716;7.086;2023-04-28T07:51:32;99898.13;;;14.72;100.00
32131;BME280;18639;50.716;7.086;2023-04-28T07:53:58;99911.00;;;14.64;100.00
32131;BME280;18639;50.716;7.086;2023-04-28T07:56:23;99894.69;;;14.43;100.00
32131;BME280;18639;50.716;7.086;2023-04-28T07:58:48;99889.31;;;14.35;100.00
32131;BME280;18639;50.716;7.086;2023-04-28T08:01:15;99865.19;;;14.23;100.00
32131;BME280;18639;50.716;7.086;2023-04-28T08:03:40;99889.72;;;14.30;100.00
32131;BME280;18639;50.716;7.086;2023-04-28T08:06:06;99876.75;;;14.40;100.00
32131;BME280;18639;50.716;7.086;2023-04-28T08:08:31;99881.16;;;14.59;100.00
32131;BME280;18639;50.716;7.086;2023-04-28T08:10:56;99851.31;;;14.53;100.00
32131;BME280;18639;50.716;7.086;2023-04-28T08:13:23;99854.03;;;14.81;100.00
32131;BME280;18639;50.716;7.086;2023-04-28T08:15:48;99881.38;;;15.23;100.00
32131;BME280;18639;50.716;7.086;2023-04-28T08:18:14;99879.41;;;15.44;100.00
32131;BME280;18639;50.716;7.086;2023-04-28T08:20:39;99882.53;;;15.67;100.00
32131;BME280;18639;50.716;7.086;2023-04-28T08:23:05;99888.38;;;15.79;100.00
32131;BME280;18639;50.716;7.086;2023-04-28T08:25:31;99893.03;;;15.85;100.00
32131;BME280;18639;50.716;7.086;2023-04-28T08:27:56;99883.19;;;15.79;100.00
32131;BME280;18639;50.716;7.086;2023-04-28T08:30:23;99856.34;;;15.69;100.00
32131;BME280;18639;50.716;7.086;2023-04-28T08:35:47;99874.09;;;15.83;100.00
32131;BME280;18639;50.716;7.086;2023-04-28T08:38:13;99880.66;;;15.87;100.00
32131;BME280;18639;50.716;7.086;2023-04-28T08:40:40;99897.66;;;15.91;100.00
32131;BME280;18639;50.716;7.086;2023-04-28T08:43:06;99888.13;;;15.72;100.00
32131;BME280;18639;50.716;7.086;2023-04-28T08:45:41;99867.91;;;15.56;100.00
32131;BME280;18639;50.716;7.086;2023-04-28T08:48:19;99891.94;;;15.78;100.00
32131;BME280;18639;50.716;7.086;2023-04-28T08:50:49;99900.25;;;15.64;100.00
32131;BME280;18639;50.716;7.086;2023-04-28T08:53:24;99889.81;;;15.64;100.00
32131;BME280;18639;50.716;7.086;2023-04-28T08:55:56;99902.28;;;15.60;100.00
32131;BME280;18639;50.716;7.086;2023-04-28T08:58:23;99906.00;;;15.57;100.00
32131;BME280;18639;50.716;7.086;2023-04-28T09:00:49;99888.09;;;15.26;100.00
32131;BME280;18639;50.716;7.086;2023-04-28T09:03:14;99875.34;;;15.23;100.00
32131;BME280;18639;50.716;7.086;2023-04-28T09:05:40;99905.22;;;15.28;100.00
32131;BME280;18639;50.716;7.086;2023-04-28T09:08:05;99908.41;;;15.22;100.00
32131;BME280;18639;50.716;7.086;2023-04-28T09:10:30;99878.97;;;14.93;100.00
32131;BME280;18639;50.716;7.086;2023-04-28T09:12:56;99902.50;;;15.20;100.00
32131;BME280;18639;50.716;7.086;2023-04-28T09:15:38;99904.81;;;15.23;100.00
32131;BME280;18639;50.716;7.086;2023-04-28T09:18:06;99893.28;;;15.35;100.00
32131;BME280;18639;50.716;7.086;2023-04-28T09:20:33;99892.59;;;15.43;100.00
32131;BME280;18639;50.716;7.086;2023-04-28T09:25:37;99883.47;;;15.76;100.00
32131;BME280;18639;50.716;7.086;2023-04-28T09:28:19;99868.38;;;15.79;100.00
32131;BME280;18639;50.716;7.086;2023-04-28T09:30:46;99892.84;;;15.96;100.00
32131;BME280;18639;50.716;7.086;2023-04-28T09:33:11;99886.25;;;15.92;100.00
32131;BME280;18639;50.716;7.086;2023-04-28T09:35:43;99886.66;;;15.97;100.00
32131;BME280;18639;50.716;7.086;2023-04-28T09:38:15;99871.59;;;15.91;100.00
32131;BME280;18639;50.716;7.086;2023-04-28T09:40:50;99889.88;;;16.09;100.00
32131;BME280;18639;50.716;7.086;2023-04-28T09:43:33;99883.66;;;16.19;100.00
32131;BME280;18639;50.716;7.086;2023-04-28T09:46:01;99884.91;;;16.15;100.00
32131;BME280;18639;50.716;7.086;2023-04-28T09:48:31;99883.56;;;16.11;100.00
32131;BME280;18639;50.716;7.086;2023-04-28T09:50:58;99891.97;;;16.05;100.00
32131;BME280;18639;50.716;7.086;2023-04-28T09:53:27;99896.53;;;15.93;100.00
32131;BME280;18639;50.716;7.086;2023-04-28T09:55:54;99878.88;;;15.87;100.00
32131;BME280;18639;50.716;7.086;2023-04-28T09:58:21;99838.00;;;15.61;100.00
32131;BME280;18639;50.716;7.086;2023-04-28T10:00:51;99878.44;;;15.92;100.00
32131;BME280;18639;50.716;7.086;2023-04-28T10:03:16;99872.97;;;15.95;100.00
32131;BME280;18639;50.716;7.086;2023-04-28T10:05:45;99873.47;;;15.98;100.00
32131;BME280;18639;50.716;7.086;2023-04-28T10:08:11;99884.84;;;16.07;100.00
32131;BME280;18639;50.716;7.086;2023-04-28T10:10:37;99878.63;;;16.08;100.00
32131;BME280;18639;50.716;7.086;2023-04-28T10:13:04;99880.59;;;16.06;100.00
32131;BME280;18639;50.716;7.086;2023-04-28T10:15:29;99864.44;;;15.93;100.00
32131;BME280;18639;50.716;7.086;2023-04-28T10:17:56;99867.69;;;16.05;100.00
32131;BME280;18639;50.716;7.086;2023-04-28T10:20:22;99878.94;;;16.05;100.00
32131;BME280;18639;50.716;7.086;2023-04-28T10:26:14;99865.13;;;15.95;100.00
32131;BME280;18639;50.716;7.086;2023-04-28T10:28:46;99879.91;;;16.04;100.00
32131;BME280;18639;50.716;7.086;2023-04-28T10:31:17;99870.44;;;16.03;100.00
32131;BME280;18639;50.716;7.086;2023-04-28T10:33:45;99874.03;;;16.02;100.00
32131;BME280;18639;50.716;7.086;2023-04-28T10:39:15;99857.19;;;15.96;100.00
32131;BME280;18639;50.716;7.086;2023-04-28T10:41:40;99864.94;;;16.06;100.00
32131;BME280;18639;50.716;7.086;2023-04-28T10:47:02;99875.63;;;16.03;100.00
32131;BME280;18639;50.716;7.086;2023-04-28T10:55:26;99869.19;;;16.07;100.00
32131;BME280;18639;50.716;7.086;2023-04-28T11:00:45;99858.56;;;16.18;100.00
32131;BME280;18639;50.716;7.086;2023-04-28T11:16:55;99854.31;;;15.90;100.00
32131;BME280;18639;50.716;7.086;2023-04-28T11:19:25;99851.97;;;15.96;100.00
32131;BME280;18639;50.716;7.086;2023-04-28T11:21:53;99858.56;;;16.18;100.00
32131;BME280;18639;50.716;7.086;2023-04-28T11:24:20;99851.88;;;16.33;100.00
32131;BME280;18639;50.716;7.086;2023-04-28T11:26:46;99854.56;;;16.41;100.00
32131;BME280;18639;50.716;7.086;2023-04-28T11:29:12;99843.91;;;16.53;100.00
32131;BME280;18639;50.716;7.086;2023-04-28T11:31:39;99837.91;;;16.70;100.00
32131;BME280;18639;50.716;7.086;2023-04-28T11:34:09;99840.78;;;16.84;100.00
32131;BME280;18639;50.716;7.086;2023-04-28T11:36:41;99849.41;;;17.03;100.00
32131;BME280;18639;50.716;7.086;2023-04-28T11:39:11;99849.63;;;17.09;100.00
32131;BME280;18639;50.716;7.086;2023-04-28T11:41:38;99847.66;;;17.11;100.00
32131;BME280;18639;50.716;7.086;2023-04-28T11:47:04;99830.78;;;17.23;100.00
32131;BME280;18639;50.716;7.086;2023-04-28T11:49:30;99843.31;;;17.46;100.00
32131;BME280;18639;50.716;7.086;2023-04-28T11:52:06;99838.47;;;17.59;100.00
32131;BME280;18639;50.716;7.086;2023-04-28T11:54:32;99843.34;;;17.54;100.00
32131;BME280;18639;50.716;7.086;2023-04-28T11:56:58;99830.25;;;17.46;100.00
32131;BME280;18639;50.716;7.086;2023-04-28T11:59:34;99833.22;;;17.51;100.00
32131;BME280;18639;50.716;7.086;2023-04-28T12:02:02;99838.13;;;17.54;100.00
32131;BME280;18639;50.716;7.086;2023-04-28T12:04:39;99844.41;;;17.61;100.00
32131;BME280;18639;50.716;7.086;2023-04-28T12:09:35;99829.09;;;17.74;100.00
32131;BME280;18639;50.716;7.086;2023-04-28T12:12:03;99815.50;;;17.62;100.00
32131;BME280;18639;50.716;7.086;2023-04-28T12:14:29;99816.28;;;17.63;100.00
32131;BME280;18639;50.716;7.086;2023-04-28T12:16:57;99819.16;;;17.78;100.00
32131;BME280;18639;50.716;7.086;2023-04-28T12:19:22;99817.84;;;17.82;100.00
32131;BME280;18639;50.716;7.086;2023-04-28T12:21:59;99811.63;;;17.75;100.00
32131;BME280;18639;50.716;7.086;2023-04-28T12:24:25;99815.44;;;17.88;100.00
32131;BME280;18639;50.716;7.086;2023-04-28T12:26:51;99810.69;;;17.92;100.00
32131;BME280;18639;50.716;7.086;2023-04-28T12:32:03;99811.59;;;17.66;100.00
32131;BME280;18639;50.716;7.086;2023-04-28T12:34:28;99807.53;;;17.72;100.00
32131;BME280;18639;50.716;7.086;2023-04-28T12:36:55;99790.78;;;17.57;100.00
32131;BME280;18639;50.716;7.086;2023-04-28T12:39:20;99792.72;;;17.47;100.00
32131;BME280;18639;50.716;7.086;2023-04-28T12:41:47;99802.97;;;17.48;100.00
32131;BME280;18639;50.716;7.086;2023-04-28T12:44:13;99805.38;;;17.42;100.00
32131;BME280;18639;50.716;7.086;2023-04-28T12:46:40;99786.72;;;17.29;100.00
32131;BME280;18639;50.716;7.086;2023-04-28T12:49:05;99780.34;;;17.23;100.00
32131;BME280;18639;50.716;7.086;2023-04-28T12:51:31;99793.31;;;17.41;100.00
32131;BME280;18639;50.716;7.086;2023-04-28T12:53:58;99788.31;;;17.55;100.00
32131;BME280;18639;50.716;7.086;2023-04-28T12:56:24;99787.34;;;17.56;100.00
32131;BME280;18639;50.716;7.086;2023-04-28T12:58:49;99758.31;;;17.59;100.00
32131;BME280;18639;50.716;7.086;2023-04-28T13:01:15;99779.13;;;17.77;100.00
32131;BME280;18639;50.716;7.086;2023-04-28T13:03:40;99767.53;;;17.80;100.00
32131;BME280;18639;50.716;7.086;2023-04-28T13:06:05;99750.88;;;17.81;100.00
32131;BME280;18639;50.716;7.086;2023-04-28T13:08:30;99765.16;;;18.11;100.00
32131;BME280;18639;50.716;7.086;2023-04-28T13:10:58;99767.75;;;18.19;100.00
32131;BME280;18639;50.716;7.086;2023-04-28T13:13:23;99725.56;;;17.97;100.00
32131;BME280;18639;50.716;7.086;2023-04-28T13:15:49;99738.84;;;18.28;100.00
32131;BME280;18639;50.716;7.086;2023-04-28T13:18:15;99740.47;;;18.45;100.00
32131;BME280;18639;50.716;7.086;2023-04-28T13:20:40;99727.56;;;18.52;100.00
32131;BME280;18639;50.716;7.086;2023-04-28T13:23:05;99727.88;;;18.65;100.00
32131;BME280;18639;50.716;7.086;2023-04-28T13:25:31;99738.00;;;18.76;100.00
32131;BME280;18639;50.716;7.086;2023-04-28T13:27:56;99752.78;;;18.69;100.00
32131;BME280;18639;50.716;7.086;2023-04-28T13:30:21;99743.63;;;18.57;100.00